sensor_id;sensor_type;location;lat;lon;timestamp;P1;durP1;ratioP1;P2;durP2;ratioP2
37905;SDS011;23739;51.448;6.674;2022-11-25T00:01:06;15.07;;;3.95;;
37905;SDS011;23739;51.448;6.674;2022-11-25T00:03:35;8.07;;;2.63;;
37905;SDS011;23739;51.448;6.674;2022-11-25T00:08:43;8.15;;;2.50;;
37905;SDS011;23739;51.448;6.674;2022-11-25T00:11:10;12.45;;;3.03;;
37905;SDS011;23739;51.448;6.674;2022-11-25T00:13:37;11.57;;;2.63;;
37905;SDS011;23739;51.448;6.674;2022-11-25T00:16:05;9.77;;;2.92;;
37905;SDS011;23739;51.448;6.674;2022-11-25T00:18:36;11.30;;;3.13;;
37905;SDS011;23739;51.448;6.674;2022-11-25T00:21:06;11.23;;;2.85;;
37905;SDS011;23739;51.448;6.674;2022-11-25T00:23:34;14.10;;;3.33;;
37905;SDS011;23739;51.448;6.674;2022-11-25T00:26:19;10.38;;;2.63;;
37905;SDS011;23739;51.448;6.674;2022-11-25T00:28:45;10.13;;;2.58;;
37905;SDS011;23739;51.448;6.674;2022-11-25T00:31:16;8.23;;;2.33;;
37905;SDS011;23739;51.448;6.674;2022-11-25T00:33:46;9.10;;;2.78;;
37905;SDS011;23739;51.448;6.674;2022-11-25T00:36:16;12.32;;;2.38;;
37905;SDS011;23739;51.448;6.674;2022-11-25T00:38:51;10.13;;;2.70;;
37905;SDS011;23739;51.448;6.674;2022-11-25T00:41:18;10.20;;;2.20;;
37905;SDS011;23739;51.448;6.674;2022-11-25T00:44:03;12.70;;;2.47;;
37905;SDS011;23739;51.448;6.674;2022-11-25T00:46:47;11.18;;;3.55;;
37905;SDS011;23739;51.448;6.674;2022-11-25T00:49:13;12.60;;;2.72;;
37905;SDS011;23739;51.448;6.674;2022-11-25T00:51:39;8.70;;;3.08;;
37905;SDS011;23739;51.448;6.674;2022-11-25T00:54:04;11.23;;;2.67;;
37905;SDS011;23739;51.448;6.674;2022-11-25T00:56:31;10.50;;;2.33;;
37905;SDS011;23739;51.448;6.674;2022-11-25T00:58:56;10.48;;;2.45;;
37905;SDS011;23739;51.448;6.674;2022-11-25T01:01:23;13.20;;;3.00;;
37905;SDS011;23739;51.448;6.674;2022-11-25T01:03:49;10.15;;;2.42;;
37905;SDS011;23739;51.448;6.674;2022-11-25T01:06:16;7.75;;;2.47;;
37905;SDS011;23739;51.448;6.674;2022-11-25T01:08:42;12.93;;;2.30;;
37905;SDS011;23739;51.448;6.674;2022-11-25T01:11:11;12.32;;;3.00;;
37905;SDS011;23739;51.448;6.674;2022-11-25T01:13:39;9.65;;;2.58;;
37905;SDS011;23739;51.448;6.674;2022-11-25T01:16:06;15.52;;;2.40;;
37905;SDS011;23739;51.448;6.674;2022-11-25T01:18:33;11.85;;;2.47;;
37905;SDS011;23739;51.448;6.674;2022-11-25T01:23:38;8.07;;;2.03;;
37905;SDS011;23739;51.448;6.674;2022-11-25T01:26:06;12.20;;;3.22;;
37905;SDS011;23739;51.448;6.674;2022-11-25T01:28:34;15.00;;;3.72;;
37905;SDS011;23739;51.448;6.674;2022-11-25T01:31:01;12.25;;;2.65;;
37905;SDS011;23739;51.448;6.674;2022-11-25T01:33:30;10.93;;;2.85;;
37905;SDS011;23739;51.448;6.674;2022-11-25T01:36:00;10.15;;;2.60;;
37905;SDS011;23739;51.448;6.674;2022-11-25T01:38:28;10.63;;;2.97;;
37905;SDS011;23739;51.448;6.674;2022-11-25T01:40:55;13.93;;;3.38;;
37905;SDS011;23739;51.448;6.674;2022-11-25T01:43:21;9.05;;;2.35;;
37905;SDS011;23739;51.448;6.674;2022-11-25T01:45:47;11.85;;;2.63;;
37905;SDS011;23739;51.448;6.674;2022-11-25T01:48:27;11.45;;;4.13;;
37905;SDS011;23739;51.448;6.674;2022-11-25T01:53:50;8.63;;;2.60;;
37905;SDS011;23739;51.448;6.674;2022-11-25T01:56:18;12.57;;;2.88;;
37905;SDS011;23739;51.448;6.674;2022-11-25T01:58:45;7.85;;;2.50;;
37905;SDS011;23739;51.448;6.674;2022-11-25T02:01:13;12.10;;;2.83;;
37905;SDS011;23739;51.448;6.674;2022-11-25T02:03:41;14.75;;;2.90;;
37905;SDS011;23739;51.448;6.674;2022-11-25T02:06:14;11.27;;;2.92;;
37905;SDS011;23739;51.448;6.674;2022-11-25T02:08:48;12.52;;;3.10;;
37905;SDS011;23739;51.448;6.674;2022-11-25T02:11:16;10.05;;;2.47;;
37905;SDS011;23739;51.448;6.674;2022-11-25T02:13:45;12.00;;;3.33;;
37905;SDS011;23739;51.448;6.674;2022-11-25T02:16:13;12.63;;;3.50;;
37905;SDS011;23739;51.448;6.674;2022-11-25T02:18:39;8.63;;;2.67;;
37905;SDS011;23739;51.448;6.674;2022-11-25T02:21:05;10.82;;;2.75;;
37905;SDS011;23739;51.448;6.674;2022-11-25T02:26:12;9.30;;;2.58;;
37905;SDS011;23739;51.448;6.674;2022-11-25T02:28:38;12.93;;;4.43;;
37905;SDS011;23739;51.448;6.674;2022-11-25T02:31:05;13.98;;;3.17;;
37905;SDS011;23739;51.448;6.674;2022-11-25T02:33:33;14.02;;;3.30;;
37905;SDS011;23739;51.448;6.674;2022-11-25T02:35:59;11.45;;;2.45;;
37905;SDS011;23739;51.448;6.674;2022-11-25T02:38:38;16.50;;;3.10;;
37905;SDS011;23739;51.448;6.674;2022-11-25T02:43:54;9.75;;;3.33;;
37905;SDS011;23739;51.448;6.674;2022-11-25T02:46:21;15.57;;;4.43;;
37905;SDS011;23739;51.448;6.674;2022-11-25T02:48:48;14.05;;;4.45;;
37905;SDS011;23739;51.448;6.674;2022-11-25T02:51:17;13.63;;;4.43;;
37905;SDS011;23739;51.448;6.674;2022-11-25T02:53:44;11.23;;;4.07;;
37905;SDS011;23739;51.448;6.674;2022-11-25T02:56:11;10.27;;;3.40;;
37905;SDS011;23739;51.448;6.674;2022-11-25T02:58:38;11.05;;;3.65;;
37905;SDS011;23739;51.448;6.674;2022-11-25T03:01:04;10.82;;;2.80;;
37905;SDS011;23739;51.448;6.674;2022-11-25T03:03:30;11.40;;;3.10;;
37905;SDS011;23739;51.448;6.674;2022-11-25T03:05:55;13.82;;;4.45;;
37905;SDS011;23739;51.448;6.674;2022-11-25T03:08:21;10.18;;;4.82;;
37905;SDS011;23739;51.448;6.674;2022-11-25T03:10:47;15.27;;;4.35;;
37905;SDS011;23739;51.448;6.674;2022-11-25T03:13:13;15.30;;;4.85;;
37905;SDS011;23739;51.448;6.674;2022-11-25T03:15:39;26.95;;;5.55;;
37905;SDS011;23739;51.448;6.674;2022-11-25T03:18:05;18.38;;;4.82;;
37905;SDS011;23739;51.448;6.674;2022-11-25T03:20:31;15.60;;;4.25;;
37905;SDS011;23739;51.448;6.674;2022-11-25T03:22:59;17.85;;;4.30;;
37905;SDS011;23739;51.448;6.674;2022-11-25T03:25:25;12.05;;;3.10;;
37905;SDS011;23739;51.448;6.674;2022-11-25T03:27:51;15.48;;;5.05;;
37905;SDS011;23739;51.448;6.674;2022-11-25T03:30:18;6.20;;;2.45;;
37905;SDS011;23739;51.448;6.674;2022-11-25T03:32:46;10.52;;;3.03;;
37905;SDS011;23739;51.448;6.674;2022-11-25T03:35:13;11.65;;;2.90;;
37905;SDS011;23739;51.448;6.674;2022-11-25T03:37:39;9.98;;;2.83;;
37905;SDS011;23739;51.448;6.674;2022-11-25T03:40:05;13.40;;;3.25;;
37905;SDS011;23739;51.448;6.674;2022-11-25T03:42:33;9.75;;;2.35;;
37905;SDS011;23739;51.448;6.674;2022-11-25T03:44:58;10.48;;;2.65;;
37905;SDS011;23739;51.448;6.674;2022-11-25T03:47:24;9.82;;;2.30;;
37905;SDS011;23739;51.448;6.674;2022-11-25T03:49:50;8.80;;;2.50;;
37905;SDS011;23739;51.448;6.674;2022-11-25T03:52:16;9.25;;;3.47;;
37905;SDS011;23739;51.448;6.674;2022-11-25T03:54:42;7.93;;;2.90;;
37905;SDS011;23739;51.448;6.674;2022-11-25T03:57:08;15.65;;;4.25;;
37905;SDS011;23739;51.448;6.674;2022-11-25T03:59:34;16.48;;;3.40;;
37905;SDS011;23739;51.448;6.674;2022-11-25T04:02:00;11.25;;;3.85;;
37905;SDS011;23739;51.448;6.674;2022-11-25T04:04:26;13.57;;;2.92;;
37905;SDS011;23739;51.448;6.674;2022-11-25T04:06:52;11.23;;;3.00;;
37905;SDS011;23739;51.448;6.674;2022-11-25T04:09:18;8.60;;;2.28;;
37905;SDS011;23739;51.448;6.674;2022-11-25T04:11:44;10.63;;;3.08;;
37905;SDS011;23739;51.448;6.674;2022-11-25T04:14:29;10.57;;;3.63;;
37905;SDS011;23739;51.448;6.674;2022-11-25T04:16:55;7.88;;;2.80;;
37905;SDS011;23739;51.448;6.674;2022-11-25T04:19:21;15.85;;;3.35;;
37905;SDS011;23739;51.448;6.674;2022-11-25T04:21:47;12.00;;;3.55;;
37905;SDS011;23739;51.448;6.674;2022-11-25T04:24:12;7.45;;;3.17;;
37905;SDS011;23739;51.448;6.674;2022-11-25T04:26:39;8.85;;;3.50;;
37905;SDS011;23739;51.448;6.674;2022-11-25T04:29:05;12.70;;;4.65;;
37905;SDS011;23739;51.448;6.674;2022-11-25T04:31:31;14.43;;;4.35;;
37905;SDS011;23739;51.448;6.674;2022-11-25T04:33:57;16.00;;;4.25;;
37905;SDS011;23739;51.448;6.674;2022-11-25T04:36:23;16.95;;;4.70;;
37905;SDS011;23739;51.448;6.674;2022-11-25T04:38:49;11.55;;;4.45;;
37905;SDS011;23739;51.448;6.674;2022-11-25T04:41:15;14.25;;;3.90;;
37905;SDS011;23739;51.448;6.674;2022-11-25T04:43:41;15.45;;;3.80;;
37905;SDS011;23739;51.448;6.674;2022-11-25T04:46:08;7.70;;;3.50;;
37905;SDS011;23739;51.448;6.674;2022-11-25T04:48:38;15.40;;;4.97;;
37905;SDS011;23739;51.448;6.674;2022-11-25T04:51:04;13.70;;;4.53;;
37905;SDS011;23739;51.448;6.674;2022-11-25T04:53:29;13.10;;;3.90;;
37905;SDS011;23739;51.448;6.674;2022-11-25T04:55:56;12.52;;;3.75;;
37905;SDS011;23739;51.448;6.674;2022-11-25T04:58:21;8.13;;;3.83;;
37905;SDS011;23739;51.448;6.674;2022-11-25T05:01:05;11.93;;;2.80;;
37905;SDS011;23739;51.448;6.674;2022-11-25T05:03:31;11.27;;;3.88;;
37905;SDS011;23739;51.448;6.674;2022-11-25T05:05:57;15.85;;;4.53;;
37905;SDS011;23739;51.448;6.674;2022-11-25T05:08:22;13.27;;;3.42;;
37905;SDS011;23739;51.448;6.674;2022-11-25T05:10:48;12.05;;;3.38;;
37905;SDS011;23739;51.448;6.674;2022-11-25T05:13:14;11.10;;;3.55;;
37905;SDS011;23739;51.448;6.674;2022-11-25T05:15:40;10.57;;;3.03;;
37905;SDS011;23739;51.448;6.674;2022-11-25T05:18:05;14.10;;;4.03;;
37905;SDS011;23739;51.448;6.674;2022-11-25T05:20:31;7.95;;;3.55;;
37905;SDS011;23739;51.448;6.674;2022-11-25T05:22:57;9.77;;;3.35;;
37905;SDS011;23739;51.448;6.674;2022-11-25T05:25:23;10.75;;;4.03;;
37905;SDS011;23739;51.448;6.674;2022-11-25T05:27:50;16.88;;;4.07;;
37905;SDS011;23739;51.448;6.674;2022-11-25T05:30:17;15.88;;;3.70;;
37905;SDS011;23739;51.448;6.674;2022-11-25T05:32:42;12.73;;;3.35;;
37905;SDS011;23739;51.448;6.674;2022-11-25T05:35:08;19.95;;;4.65;;
37905;SDS011;23739;51.448;6.674;2022-11-25T05:37:34;13.70;;;3.95;;
37905;SDS011;23739;51.448;6.674;2022-11-25T05:40:00;14.77;;;4.88;;
37905;SDS011;23739;51.448;6.674;2022-11-25T05:42:27;14.30;;;3.92;;
37905;SDS011;23739;51.448;6.674;2022-11-25T05:44:53;13.88;;;3.63;;
37905;SDS011;23739;51.448;6.674;2022-11-25T05:47:19;16.35;;;3.17;;
37905;SDS011;23739;51.448;6.674;2022-11-25T05:49:45;10.38;;;3.17;;
37905;SDS011;23739;51.448;6.674;2022-11-25T05:52:11;15.27;;;3.65;;
37905;SDS011;23739;51.448;6.674;2022-11-25T05:54:37;14.15;;;4.72;;
37905;SDS011;23739;51.448;6.674;2022-11-25T05:57:02;13.60;;;3.28;;
37905;SDS011;23739;51.448;6.674;2022-11-25T05:59:28;12.40;;;3.97;;
37905;SDS011;23739;51.448;6.674;2022-11-25T06:01:54;15.65;;;5.07;;
37905;SDS011;23739;51.448;6.674;2022-11-25T06:04:20;10.13;;;3.40;;
37905;SDS011;23739;51.448;6.674;2022-11-25T06:06:46;10.32;;;3.40;;
37905;SDS011;23739;51.448;6.674;2022-11-25T06:09:11;16.58;;;3.45;;
37905;SDS011;23739;51.448;6.674;2022-11-25T06:11:37;12.07;;;3.53;;
37905;SDS011;23739;51.448;6.674;2022-11-25T06:14:03;18.88;;;4.70;;
37905;SDS011;23739;51.448;6.674;2022-11-25T06:16:29;17.00;;;4.85;;
37905;SDS011;23739;51.448;6.674;2022-11-25T06:18:54;13.60;;;3.67;;
37905;SDS011;23739;51.448;6.674;2022-11-25T06:21:20;9.73;;;3.50;;
37905;SDS011;23739;51.448;6.674;2022-11-25T06:23:46;15.00;;;5.05;;
37905;SDS011;23739;51.448;6.674;2022-11-25T06:26:14;12.82;;;4.20;;
37905;SDS011;23739;51.448;6.674;2022-11-25T06:28:42;10.32;;;3.90;;
37905;SDS011;23739;51.448;6.674;2022-11-25T06:31:09;12.73;;;4.63;;
37905;SDS011;23739;51.448;6.674;2022-11-25T06:33:38;14.45;;;5.28;;
37905;SDS011;23739;51.448;6.674;2022-11-25T06:36:05;14.00;;;4.43;;
37905;SDS011;23739;51.448;6.674;2022-11-25T06:38:32;10.50;;;4.03;;
37905;SDS011;23739;51.448;6.674;2022-11-25T06:40:59;15.15;;;4.57;;
37905;SDS011;23739;51.448;6.674;2022-11-25T06:43:26;16.10;;;5.72;;
37905;SDS011;23739;51.448;6.674;2022-11-25T06:45:52;13.60;;;5.95;;
37905;SDS011;23739;51.448;6.674;2022-11-25T06:48:17;16.83;;;5.10;;
37905;SDS011;23739;51.448;6.674;2022-11-25T06:50:43;23.77;;;5.20;;
37905;SDS011;23739;51.448;6.674;2022-11-25T06:53:09;11.52;;;5.18;;
37905;SDS011;23739;51.448;6.674;2022-11-25T06:55:34;14.52;;;5.13;;
37905;SDS011;23739;51.448;6.674;2022-11-25T06:58:00;12.63;;;4.10;;
37905;SDS011;23739;51.448;6.674;2022-11-25T07:00:26;16.23;;;4.93;;
37905;SDS011;23739;51.448;6.674;2022-11-25T07:02:52;15.10;;;4.80;;
37905;SDS011;23739;51.448;6.674;2022-11-25T07:05:17;13.65;;;4.10;;
37905;SDS011;23739;51.448;6.674;2022-11-25T07:07:43;16.67;;;6.15;;
37905;SDS011;23739;51.448;6.674;2022-11-25T07:10:09;16.70;;;4.80;;
37905;SDS011;23739;51.448;6.674;2022-11-25T07:12:35;16.98;;;5.00;;
37905;SDS011;23739;51.448;6.674;2022-11-25T07:15:01;16.42;;;5.20;;
37905;SDS011;23739;51.448;6.674;2022-11-25T07:17:27;13.85;;;4.20;;
37905;SDS011;23739;51.448;6.674;2022-11-25T07:19:53;19.27;;;4.40;;
37905;SDS011;23739;51.448;6.674;2022-11-25T07:22:19;12.52;;;4.15;;
37905;SDS011;23739;51.448;6.674;2022-11-25T07:24:44;12.90;;;3.75;;
37905;SDS011;23739;51.448;6.674;2022-11-25T07:27:10;11.85;;;3.55;;
37905;SDS011;23739;51.448;6.674;2022-11-25T07:29:36;10.77;;;4.00;;
37905;SDS011;23739;51.448;6.674;2022-11-25T07:32:02;15.85;;;4.70;;
37905;SDS011;23739;51.448;6.674;2022-11-25T07:34:28;11.57;;;4.00;;
37905;SDS011;23739;51.448;6.674;2022-11-25T07:36:53;14.68;;;3.85;;
37905;SDS011;23739;51.448;6.674;2022-11-25T07:39:20;18.08;;;4.18;;
37905;SDS011;23739;51.448;6.674;2022-11-25T07:41:51;16.13;;;5.32;;
37905;SDS011;23739;51.448;6.674;2022-11-25T07:44:17;15.70;;;4.57;;
37905;SDS011;23739;51.448;6.674;2022-11-25T07:46:45;18.70;;;4.97;;
37905;SDS011;23739;51.448;6.674;2022-11-25T07:49:19;16.23;;;4.50;;
37905;SDS011;23739;51.448;6.674;2022-11-25T07:51:50;15.13;;;4.32;;
37905;SDS011;23739;51.448;6.674;2022-11-25T07:54:18;11.55;;;4.72;;
37905;SDS011;23739;51.448;6.674;2022-11-25T07:56:45;17.88;;;4.55;;
37905;SDS011;23739;51.448;6.674;2022-11-25T07:59:13;12.60;;;4.45;;
37905;SDS011;23739;51.448;6.674;2022-11-25T08:01:41;13.10;;;4.43;;
37905;SDS011;23739;51.448;6.674;2022-11-25T08:04:08;17.52;;;5.80;;
37905;SDS011;23739;51.448;6.674;2022-11-25T08:06:37;16.05;;;4.93;;
37905;SDS011;23739;51.448;6.674;2022-11-25T08:09:04;13.55;;;4.72;;
37905;SDS011;23739;51.448;6.674;2022-11-25T08:11:31;10.18;;;5.25;;
37905;SDS011;23739;51.448;6.674;2022-11-25T08:13:57;12.40;;;4.28;;
37905;SDS011;23739;51.448;6.674;2022-11-25T08:16:24;16.33;;;4.97;;
37905;SDS011;23739;51.448;6.674;2022-11-25T08:18:52;12.02;;;5.22;;
37905;SDS011;23739;51.448;6.674;2022-11-25T08:21:18;22.15;;;8.55;;
37905;SDS011;23739;51.448;6.674;2022-11-25T08:23:44;35.03;;;14.20;;
37905;SDS011;23739;51.448;6.674;2022-11-25T08:26:15;39.10;;;13.75;;
37905;SDS011;23739;51.448;6.674;2022-11-25T08:28:50;39.13;;;12.57;;
37905;SDS011;23739;51.448;6.674;2022-11-25T08:31:20;24.40;;;7.75;;
37905;SDS011;23739;51.448;6.674;2022-11-25T08:36:17;19.58;;;6.45;;
37905;SDS011;23739;51.448;6.674;2022-11-25T08:38:44;12.57;;;5.15;;
37905;SDS011;23739;51.448;6.674;2022-11-25T08:41:16;17.08;;;8.13;;
37905;SDS011;23739;51.448;6.674;2022-11-25T08:44:02;14.48;;;7.70;;
37905;SDS011;23739;51.448;6.674;2022-11-25T08:46:30;11.18;;;5.65;;
37905;SDS011;23739;51.448;6.674;2022-11-25T08:48:58;15.65;;;6.55;;
37905;SDS011;23739;51.448;6.674;2022-11-25T08:51:25;13.07;;;4.70;;
37905;SDS011;23739;51.448;6.674;2022-11-25T08:53:53;16.15;;;4.65;;
37905;SDS011;23739;51.448;6.674;2022-11-25T08:56:20;17.88;;;4.70;;
37905;SDS011;23739;51.448;6.674;2022-11-25T08:58:47;12.02;;;4.40;;
37905;SDS011;23739;51.448;6.674;2022-11-25T09:01:13;15.18;;;5.28;;
37905;SDS011;23739;51.448;6.674;2022-11-25T09:03:41;9.43;;;4.38;;
37905;SDS011;23739;51.448;6.674;2022-11-25T09:06:10;15.18;;;5.38;;
37905;SDS011;23739;51.448;6.674;2022-11-25T09:08:36;13.73;;;4.95;;
37905;SDS011;23739;51.448;6.674;2022-11-25T09:11:04;15.93;;;9.98;;
37905;SDS011;23739;51.448;6.674;2022-11-25T09:13:30;19.27;;;8.10;;
37905;SDS011;23739;51.448;6.674;2022-11-25T09:15:56;14.55;;;6.63;;
37905;SDS011;23739;51.448;6.674;2022-11-25T09:18:22;14.13;;;5.10;;
37905;SDS011;23739;51.448;6.674;2022-11-25T09:20:51;12.57;;;3.70;;
37905;SDS011;23739;51.448;6.674;2022-11-25T09:23:18;12.30;;;4.32;;
37905;SDS011;23739;51.448;6.674;2022-11-25T09:25:51;11.75;;;3.92;;
37905;SDS011;23739;51.448;6.674;2022-11-25T09:28:21;13.48;;;4.15;;
37905;SDS011;23739;51.448;6.674;2022-11-25T09:30:48;8.65;;;4.20;;
37905;SDS011;23739;51.448;6.674;2022-11-25T09:33:17;10.45;;;4.10;;
37905;SDS011;23739;51.448;6.674;2022-11-25T09:35:43;11.20;;;3.33;;
37905;SDS011;23739;51.448;6.674;2022-11-25T09:38:10;10.82;;;4.53;;
37905;SDS011;23739;51.448;6.674;2022-11-25T09:43:31;12.48;;;3.50;;
37905;SDS011;23739;51.448;6.674;2022-11-25T10:00:25;12.25;;;3.47;;
37905;SDS011;23739;51.448;6.674;2022-11-25T10:08:34;12.68;;;2.97;;
37905;SDS011;23739;51.448;6.674;2022-11-25T10:14:12;7.22;;;2.45;;
37905;SDS011;23739;51.448;6.674;2022-11-25T10:16:50;5.78;;;2.10;;
37905;SDS011;23739;51.448;6.674;2022-11-25T10:24:44;12.18;;;3.13;;
37905;SDS011;23739;51.448;6.674;2022-11-25T10:27:14;8.93;;;2.58;;
37905;SDS011;23739;51.448;6.674;2022-11-25T10:29:47;6.95;;;2.10;;
37905;SDS011;23739;51.448;6.674;2022-11-25T10:32:21;5.00;;;2.10;;
37905;SDS011;23739;51.448;6.674;2022-11-25T10:34:56;7.18;;;2.40;;
37905;SDS011;23739;51.448;6.674;2022-11-25T10:37:35;7.45;;;2.70;;
37905;SDS011;23739;51.448;6.674;2022-11-25T10:40:08;12.05;;;2.95;;
37905;SDS011;23739;51.448;6.674;2022-11-25T10:42:42;10.25;;;2.88;;
37905;SDS011;23739;51.448;6.674;2022-11-25T10:45:08;8.63;;;3.45;;
37905;SDS011;23739;51.448;6.674;2022-11-25T10:47:40;7.18;;;2.55;;
37905;SDS011;23739;51.448;6.674;2022-11-25T10:50:15;9.77;;;2.72;;
37905;SDS011;23739;51.448;6.674;2022-11-25T10:53:01;17.05;;;4.15;;
37905;SDS011;23739;51.448;6.674;2022-11-25T10:58:37;12.13;;;2.92;;
37905;SDS011;23739;51.448;6.674;2022-11-25T11:01:20;11.35;;;3.33;;
37905;SDS011;23739;51.448;6.674;2022-11-25T11:04:50;7.25;;;2.45;;
37905;SDS011;23739;51.448;6.674;2022-11-25T11:06:40;8.38;;;2.80;;
37905;SDS011;23739;51.448;6.674;2022-11-25T11:14:51;11.32;;;3.20;;
37905;SDS011;23739;51.448;6.674;2022-11-25T11:17:36;13.23;;;2.53;;
37905;SDS011;23739;51.448;6.674;2022-11-25T11:22:32;12.70;;;3.17;;
37905;SDS011;23739;51.448;6.674;2022-11-25T11:27:52;11.35;;;4.03;;
37905;SDS011;23739;51.448;6.674;2022-11-25T11:30:28;14.27;;;2.88;;
37905;SDS011;23739;51.448;6.674;2022-11-25T11:33:04;4.65;;;1.90;;
37905;SDS011;23739;51.448;6.674;2022-11-25T11:41:35;9.23;;;2.42;;
37905;SDS011;23739;51.448;6.674;2022-11-25T11:44:17;12.52;;;2.33;;
37905;SDS011;23739;51.448;6.674;2022-11-25T11:50:17;10.45;;;2.20;;
37905;SDS011;23739;51.448;6.674;2022-11-25T11:55:26;11.35;;;2.25;;
37905;SDS011;23739;51.448;6.674;2022-11-25T12:01:13;11.35;;;2.33;;
37905;SDS011;23739;51.448;6.674;2022-11-25T12:06:44;16.33;;;3.65;;
37905;SDS011;23739;51.448;6.674;2022-11-25T12:09:20;4.65;;;1.75;;
37905;SDS011;23739;51.448;6.674;2022-11-25T12:11:50;14.13;;;3.80;;
37905;SDS011;23739;51.448;6.674;2022-11-25T12:17:33;7.88;;;2.78;;
37905;SDS011;23739;51.448;6.674;2022-11-25T12:23:00;11.30;;;2.95;;
37905;SDS011;23739;51.448;6.674;2022-11-25T12:25:32;8.73;;;2.38;;
37905;SDS011;23739;51.448;6.674;2022-11-25T12:33:24;8.63;;;2.40;;
37905;SDS011;23739;51.448;6.674;2022-11-25T12:36:07;6.38;;;2.40;;
37905;SDS011;23739;51.448;6.674;2022-11-25T12:41:46;6.07;;;2.65;;
37905;SDS011;23739;51.448;6.674;2022-11-25T12:46:47;6.13;;;1.70;;
37905;SDS011;23739;51.448;6.674;2022-11-25T12:49:22;10.48;;;3.10;;
37905;SDS011;23739;51.448;6.674;2022-11-25T13:00:09;9.10;;;2.95;;
37905;SDS011;23739;51.448;6.674;2022-11-25T13:11:27;8.63;;;2.03;;
37905;SDS011;23739;51.448;6.674;2022-11-25T13:16:49;6.32;;;2.05;;
37905;SDS011;23739;51.448;6.674;2022-11-25T13:19:19;8.05;;;2.30;;
37905;SDS011;23739;51.448;6.674;2022-11-25T13:21:58;8.00;;;1.98;;
37905;SDS011;23739;51.448;6.674;2022-11-25T13:24:28;7.63;;;2.13;;
37905;SDS011;23739;51.448;6.674;2022-11-25T13:27:02;7.22;;;2.00;;
37905;SDS011;23739;51.448;6.674;2022-11-25T13:29:51;6.32;;;2.03;;
37905;SDS011;23739;51.448;6.674;2022-11-25T13:32:32;16.45;;;4.00;;
37905;SDS011;23739;51.448;6.674;2022-11-25T13:37:49;11.70;;;2.15;;
37905;SDS011;23739;51.448;6.674;2022-11-25T13:40:18;10.40;;;2.60;;
37905;SDS011;23739;51.448;6.674;2022-11-25T13:42:56;11.30;;;2.28;;
37905;SDS011;23739;51.448;6.674;2022-11-25T13:48:11;11.20;;;2.45;;
37905;SDS011;23739;51.448;6.674;2022-11-25T13:50:46;10.55;;;1.80;;
37905;SDS011;23739;51.448;6.674;2022-11-25T14:01:51;8.55;;;2.15;;
37905;SDS011;23739;51.448;6.674;2022-11-25T14:04:21;10.82;;;2.83;;
37905;SDS011;23739;51.448;6.674;2022-11-25T14:22:01;14.75;;;4.78;;
37905;SDS011;23739;51.448;6.674;2022-11-25T14:24:52;15.27;;;3.08;;
37905;SDS011;23739;51.448;6.674;2022-11-25T14:27:26;7.32;;;2.22;;
37905;SDS011;23739;51.448;6.674;2022-11-25T14:32:31;6.72;;;2.08;;
37905;SDS011;23739;51.448;6.674;2022-11-25T14:37:50;17.80;;;6.20;;
37905;SDS011;23739;51.448;6.674;2022-11-25T14:40:28;9.02;;;3.08;;
37905;SDS011;23739;51.448;6.674;2022-11-25T14:42:59;21.88;;;8.35;;
37905;SDS011;23739;51.448;6.674;2022-11-25T14:45:33;7.40;;;3.13;;
37905;SDS011;23739;51.448;6.674;2022-11-25T14:48:16;15.23;;;4.72;;
37905;SDS011;23739;51.448;6.674;2022-11-25T14:50:59;20.20;;;8.43;;
37905;SDS011;23739;51.448;6.674;2022-11-25T14:53:28;8.80;;;2.03;;
37905;SDS011;23739;51.448;6.674;2022-11-25T14:55:55;10.02;;;3.10;;
37905;SDS011;23739;51.448;6.674;2022-11-25T14:58:24;8.75;;;2.70;;
37905;SDS011;23739;51.448;6.674;2022-11-25T15:01:01;8.10;;;2.65;;
37905;SDS011;23739;51.448;6.674;2022-11-25T15:03:30;11.40;;;2.95;;
37905;SDS011;23739;51.448;6.674;2022-11-25T15:05:59;8.35;;;1.98;;
37905;SDS011;23739;51.448;6.674;2022-11-25T15:08:27;7.10;;;3.22;;
37905;SDS011;23739;51.448;6.674;2022-11-25T15:10:59;12.88;;;2.80;;
37905;SDS011;23739;51.448;6.674;2022-11-25T15:16:16;9.77;;;3.10;;
37905;SDS011;23739;51.448;6.674;2022-11-25T15:18:55;7.95;;;1.90;;
37905;SDS011;23739;51.448;6.674;2022-11-25T15:21:33;7.18;;;2.10;;
37905;SDS011;23739;51.448;6.674;2022-11-25T15:24:01;10.88;;;2.20;;
37905;SDS011;23739;51.448;6.674;2022-11-25T15:26:31;7.60;;;2.42;;
37905;SDS011;23739;51.448;6.674;2022-11-25T15:29:11;7.18;;;2.67;;
37905;SDS011;23739;51.448;6.674;2022-11-25T15:31:37;9.27;;;2.83;;
37905;SDS011;23739;51.448;6.674;2022-11-25T15:34:06;10.68;;;3.50;;
37905;SDS011;23739;51.448;6.674;2022-11-25T15:36:35;10.25;;;2.97;;
37905;SDS011;23739;51.448;6.674;2022-11-25T15:41:49;11.00;;;2.70;;
37905;SDS011;23739;51.448;6.674;2022-11-25T15:46:52;8.57;;;2.40;;
37905;SDS011;23739;51.448;6.674;2022-11-25T15:49:24;10.43;;;3.13;;
37905;SDS011;23739;51.448;6.674;2022-11-25T15:52:07;16.60;;;3.27;;
37905;SDS011;23739;51.448;6.674;2022-11-25T15:54:43;10.30;;;2.47;;
37905;SDS011;23739;51.448;6.674;2022-11-25T16:12:43;6.32;;;1.95;;
37905;SDS011;23739;51.448;6.674;2022-11-25T16:15:45;10.75;;;3.08;;
37905;SDS011;23739;51.448;6.674;2022-11-25T16:18:15;10.02;;;2.97;;
37905;SDS011;23739;51.448;6.674;2022-11-25T16:20:49;6.38;;;2.22;;
37905;SDS011;23739;51.448;6.674;2022-11-25T16:23:18;8.90;;;2.78;;
37905;SDS011;23739;51.448;6.674;2022-11-25T16:25:54;6.65;;;2.33;;
37905;SDS011;23739;51.448;6.674;2022-11-25T16:28:24;8.18;;;2.60;;
37905;SDS011;23739;51.448;6.674;2022-11-25T16:30:51;9.82;;;2.08;;
37905;SDS011;23739;51.448;6.674;2022-11-25T16:33:19;7.38;;;2.03;;
37905;SDS011;23739;51.448;6.674;2022-11-25T16:35:44;6.00;;;2.33;;
37905;SDS011;23739;51.448;6.674;2022-11-25T16:38:10;6.68;;;2.38;;
37905;SDS011;23739;51.448;6.674;2022-11-25T16:40:36;9.65;;;3.47;;
37905;SDS011;23739;51.448;6.674;2022-11-25T16:43:12;12.43;;;3.55;;
37905;SDS011;23739;51.448;6.674;2022-11-25T16:45:45;9.35;;;2.72;;
37905;SDS011;23739;51.448;6.674;2022-11-25T16:48:15;9.98;;;3.10;;
37905;SDS011;23739;51.448;6.674;2022-11-25T16:50:42;12.98;;;4.00;;
37905;SDS011;23739;51.448;6.674;2022-11-25T16:53:09;11.68;;;5.25;;
37905;SDS011;23739;51.448;6.674;2022-11-25T16:55:37;8.90;;;4.35;;
37905;SDS011;23739;51.448;6.674;2022-11-25T16:58:06;18.85;;;8.60;;
37905;SDS011;23739;51.448;6.674;2022-11-25T17:00:40;13.40;;;5.35;;
37905;SDS011;23739;51.448;6.674;2022-11-25T17:03:09;13.45;;;4.05;;
37905;SDS011;23739;51.448;6.674;2022-11-25T17:05:36;11.65;;;4.63;;
37905;SDS011;23739;51.448;6.674;2022-11-25T17:08:02;17.73;;;6.60;;
37905;SDS011;23739;51.448;6.674;2022-11-25T17:10:28;17.73;;;8.90;;
37905;SDS011;23739;51.448;6.674;2022-11-25T17:12:54;19.73;;;10.20;;
37905;SDS011;23739;51.448;6.674;2022-11-25T17:15:28;14.20;;;5.40;;
37905;SDS011;23739;51.448;6.674;2022-11-25T17:17:57;9.35;;;6.10;;
37905;SDS011;23739;51.448;6.674;2022-11-25T17:20:27;16.30;;;6.43;;
37905;SDS011;23739;51.448;6.674;2022-11-25T17:22:53;22.77;;;9.15;;
37905;SDS011;23739;51.448;6.674;2022-11-25T17:25:19;22.45;;;10.43;;
37905;SDS011;23739;51.448;6.674;2022-11-25T17:27:47;18.50;;;10.45;;
37905;SDS011;23739;51.448;6.674;2022-11-25T17:30:23;15.05;;;6.20;;
37905;SDS011;23739;51.448;6.674;2022-11-25T17:32:58;15.15;;;7.18;;
37905;SDS011;23739;51.448;6.674;2022-11-25T17:35:31;22.45;;;8.00;;
37905;SDS011;23739;51.448;6.674;2022-11-25T17:37:58;14.80;;;6.30;;
37905;SDS011;23739;51.448;6.674;2022-11-25T17:40:25;11.65;;;4.53;;
37905;SDS011;23739;51.448;6.674;2022-11-25T17:42:51;14.20;;;6.57;;
37905;SDS011;23739;51.448;6.674;2022-11-25T17:45:18;15.10;;;7.45;;